createdAt,value
2018-08-13T00:00:07.090Z,18.68
2018-08-13T00:02:35.727Z,18.53
2018-08-13T00:05:04.878Z,18.51
2018-08-13T00:07:33.501Z,18.49
2018-08-13T00:10:05.141Z,18.42
2018-08-13T00:12:33.796Z,18.37
2018-08-13T00:15:02.426Z,18.33
2018-08-13T00:17:31.194Z,18.27
2018-08-13T00:19:59.810Z,18.20
2018-08-13T00:22:28.546Z,18.11
2018-08-13T00:25:28.056Z,18.11
2018-08-13T00:27:56.704Z,18.09
2018-08-13T00:30:25.373Z,18.07
2018-08-13T00:32:54.064Z,18.08
2018-08-13T00:35:22.703Z,18.01
2018-08-13T00:37:51.340Z,18.03
2018-08-13T00:40:20.220Z,17.97
2018-08-13T00:42:48.884Z,17.95
2018-08-13T00:45:17.584Z,17.91
2018-08-13T00:47:46.177Z,17.94
2018-08-13T00:50:15.988Z,18.00
2018-08-13T00:52:45.188Z,18.00
2018-08-13T00:55:14.990Z,18.00
2018-08-13T00:57:43.670Z,17.93
2018-08-13T01:00:15.666Z,17.84
2018-08-13T01:02:45.049Z,17.81
2018-08-13T01:05:14.306Z,17.75
2018-08-13T01:07:42.957Z,17.63
2018-08-13T01:10:14.156Z,17.69
2018-08-13T01:12:43.187Z,17.63
2018-08-13T01:15:13.685Z,17.55
2018-08-13T01:17:44.178Z,17.52
2018-08-13T01:20:14.343Z,17.43
2018-08-13T01:22:43.053Z,17.24
2018-08-13T01:25:14.687Z,17.22
2018-08-13T01:27:44.071Z,17.15
2018-08-13T01:30:14.617Z,17.15
2018-08-13T01:32:43.353Z,17.34
2018-08-13T01:35:12.035Z,17.34
2018-08-13T01:37:40.663Z,17.21
2018-08-13T01:40:10.578Z,17.40
2018-08-13T01:42:39.319Z,17.44
2018-08-13T01:45:10.890Z,17.42
2018-08-13T01:47:39.999Z,17.48
2018-08-13T01:50:10.297Z,17.52
2018-08-13T01:52:38.921Z,17.46
2018-08-13T01:55:08.836Z,17.44
2018-08-13T01:57:37.553Z,17.45
2018-08-13T02:00:09.559Z,17.48
2018-08-13T02:02:38.319Z,17.45
2018-08-13T02:05:07.243Z,17.42
2018-08-13T02:07:36.230Z,17.32
2018-08-13T02:10:05.559Z,17.28
2018-08-13T02:12:34.260Z,17.22
2018-08-13T02:15:03.004Z,17.23
2018-08-13T02:17:31.689Z,17.13
2018-08-13T02:20:00.354Z,17.12
2018-08-13T02:22:29.023Z,17.09
2018-08-13T02:24:58.032Z,17.06
2018-08-13T02:27:26.728Z,17.02
2018-08-13T02:29:55.434Z,17.01
2018-08-13T02:32:24.065Z,16.99
2018-08-13T02:34:52.754Z,16.96
2018-08-13T02:37:21.398Z,16.96
2018-08-13T02:39:50.082Z,16.88
2018-08-13T02:42:18.790Z,16.89
2018-08-13T02:44:47.510Z,16.86
2018-08-13T02:47:16.217Z,16.80
2018-08-13T02:49:44.875Z,16.81
2018-08-13T02:52:13.558Z,16.72
2018-08-13T02:54:42.175Z,16.71
2018-08-13T02:57:10.830Z,16.70
2018-08-13T02:59:39.584Z,16.65
2018-08-13T03:02:08.291Z,16.71
2018-08-13T03:04:37.028Z,16.70
2018-08-13T03:07:05.736Z,16.66
2018-08-13T03:09:34.425Z,16.63
2018-08-13T03:12:03.126Z,16.68
2018-08-13T03:14:32.110Z,16.59
2018-08-13T03:17:00.734Z,16.63
2018-08-13T03:19:29.447Z,16.51
2018-08-13T03:21:58.174Z,16.55
2018-08-13T03:24:26.903Z,16.53
2018-08-13T03:26:55.585Z,16.41
2018-08-13T03:29:24.269Z,16.44
2018-08-13T03:31:52.958Z,16.37
2018-08-13T03:34:21.650Z,16.42
2018-08-13T03:36:50.370Z,16.42
2018-08-13T03:39:19.058Z,16.40
2018-08-13T03:41:47.686Z,16.37
2018-08-13T03:44:16.322Z,16.26
2018-08-13T03:46:44.963Z,16.22
2018-08-13T03:49:13.702Z,16.21
2018-08-13T03:58:34.336Z,16.00
2018-08-13T04:01:09.979Z,16.06
2018-08-13T04:03:38.671Z,16.06
2018-08-13T04:06:07.393Z,16.09
2018-08-13T04:08:36.123Z,16.10
2018-08-13T04:11:04.818Z,16.13
2018-08-13T04:13:33.506Z,16.15
2018-08-13T04:16:02.232Z,16.18
2018-08-13T04:18:30.912Z,16.20
2018-08-13T04:20:59.590Z,16.29
2018-08-13T04:23:28.281Z,16.25
2018-08-13T04:25:56.937Z,16.30
2018-08-13T04:28:25.659Z,16.37
2018-08-13T04:30:54.379Z,16.39
2018-08-13T04:33:23.042Z,16.49
2018-08-13T04:35:51.703Z,16.54
2018-08-13T04:38:20.385Z,16.56
2018-08-13T04:40:49.091Z,16.67
2018-08-13T04:43:17.745Z,16.70
2018-08-13T04:45:46.441Z,16.76
2018-08-13T04:48:15.079Z,16.77
2018-08-13T04:50:43.718Z,16.85
2018-08-13T05:05:59.327Z,17.71
2018-08-13T05:08:28.009Z,17.73
2018-08-13T05:10:56.715Z,17.71
2018-08-13T05:13:25.361Z,17.79
2018-08-13T05:15:54.010Z,17.83
2018-08-13T05:18:22.639Z,17.86
2018-08-13T05:20:51.286Z,17.91
2018-08-13T05:23:19.917Z,17.91
2018-08-13T05:25:48.579Z,17.97
2018-08-13T05:28:17.224Z,18.05
2018-08-13T05:30:45.981Z,18.05
2018-08-13T05:33:14.645Z,18.17
2018-08-13T05:35:43.321Z,18.24
2018-08-13T05:38:12.029Z,18.32
2018-08-13T05:40:40.695Z,18.29
2018-08-13T05:43:09.401Z,18.34
2018-08-13T05:45:38.118Z,18.34
2018-08-13T05:48:06.941Z,18.37
2018-08-13T05:50:35.650Z,18.40
2018-08-13T05:53:04.500Z,18.42
2018-08-13T05:55:33.112Z,18.52
2018-08-13T05:58:01.871Z,18.56
2018-08-13T06:00:30.592Z,18.64
2018-08-13T06:02:59.260Z,18.70
2018-08-13T06:05:27.889Z,18.80
2018-08-13T06:07:56.576Z,18.93
2018-08-13T06:10:25.206Z,19.01
2018-08-13T06:12:53.891Z,19.07
2018-08-13T06:15:22.679Z,19.14
2018-08-13T06:17:51.353Z,19.18
2018-08-13T06:20:20.090Z,19.28
2018-08-13T06:22:48.777Z,19.39
2018-08-13T06:25:17.464Z,19.38
2018-08-13T06:27:46.189Z,19.52
2018-08-13T06:30:16.322Z,19.59
2018-08-13T06:32:45.156Z,19.74
2018-08-13T06:35:14.443Z,19.81
2018-08-13T06:37:44.144Z,19.82
2018-08-13T06:40:13.367Z,19.93
2018-08-13T06:42:42.264Z,19.89
2018-08-13T06:45:11.508Z,20.02
2018-08-13T06:47:40.739Z,20.00
2018-08-13T06:50:11.802Z,20.07
2018-08-13T06:52:40.539Z,20.13
2018-08-13T06:55:09.681Z,20.24
2018-08-13T06:57:38.335Z,20.22
2018-08-13T07:00:08.809Z,20.31
2018-08-13T07:02:37.634Z,20.41
2018-08-13T07:05:07.730Z,20.46
2018-08-13T07:07:36.639Z,20.63
2018-08-13T07:10:10.002Z,20.68
2018-08-13T07:12:39.433Z,20.80
2018-08-13T07:15:08.543Z,20.88
2018-08-13T07:17:37.580Z,20.99
2018-08-13T07:20:08.336Z,21.10
2018-08-13T07:22:36.997Z,21.31
2018-08-13T07:25:06.864Z,21.41
2018-08-13T07:27:35.510Z,21.48
2018-08-13T07:30:06.364Z,21.62
2018-08-13T07:32:35.061Z,21.65
2018-08-13T07:35:03.897Z,21.59
2018-08-13T07:37:32.790Z,21.74
2018-08-13T07:40:01.647Z,21.76
2018-08-13T07:42:30.884Z,21.85
2018-08-13T07:44:59.497Z,22.00
2018-08-13T07:47:28.199Z,22.10
2018-08-13T07:49:57.019Z,22.14
2018-08-13T07:52:25.742Z,22.33
2018-08-13T07:54:54.410Z,22.42
2018-08-13T07:57:23.199Z,22.49
2018-08-13T07:59:51.935Z,22.59
2018-08-13T08:02:20.657Z,22.74
2018-08-13T08:04:49.314Z,22.66
2018-08-13T08:07:18.038Z,22.82
2018-08-13T08:09:46.679Z,22.95
2018-08-13T08:12:15.464Z,23.11
2018-08-13T08:14:44.197Z,23.09
2018-08-13T08:17:12.770Z,23.20
2018-08-13T08:19:41.457Z,23.23
2018-08-13T08:22:10.172Z,23.35
2018-08-13T08:24:38.879Z,23.40
2018-08-13T08:27:08.145Z,23.58
2018-08-13T08:29:36.922Z,23.79
2018-08-13T08:32:05.641Z,23.92
2018-08-13T08:34:34.313Z,23.87
2018-08-13T08:37:02.970Z,23.94
2018-08-13T08:39:31.637Z,24.12
2018-08-13T08:42:00.319Z,24.24
2018-08-13T08:44:29.630Z,24.36
2018-08-13T08:46:58.296Z,24.55
2018-08-13T08:49:26.998Z,24.70
2018-08-13T08:51:55.628Z,24.71
2018-08-13T08:54:24.244Z,24.84
2018-08-13T08:56:52.935Z,24.98
2018-08-13T08:59:21.532Z,25.11
2018-08-13T09:01:50.214Z,25.24
2018-08-13T09:04:18.813Z,25.28
2018-08-13T09:06:47.500Z,25.42
2018-08-13T09:09:16.154Z,25.52
2018-08-13T09:11:44.835Z,25.54
2018-08-13T09:14:13.575Z,25.70
2018-08-13T09:16:44.650Z,25.78
2018-08-13T09:19:24.295Z,25.85
2018-08-13T09:21:57.274Z,25.97
2018-08-13T09:24:37.100Z,25.98
2018-08-13T09:27:16.794Z,26.04
2018-08-13T09:30:54.290Z,26.27
2018-08-13T09:33:34.146Z,26.28
2018-08-13T09:36:02.795Z,26.14
2018-08-13T09:38:31.501Z,26.18
2018-08-13T09:41:00.192Z,26.29
2018-08-13T09:43:28.798Z,26.46
2018-08-13T09:45:57.458Z,26.39
2018-08-13T09:48:26.826Z,26.46
2018-08-13T09:50:55.686Z,26.44
2018-08-13T09:53:24.339Z,26.48
2018-08-13T09:55:53.691Z,26.68
2018-08-13T09:58:22.471Z,26.76
2018-08-13T10:01:11.824Z,26.84
2018-08-13T10:03:40.861Z,26.84
2018-08-13T10:06:09.642Z,27.04
2018-08-13T10:08:38.321Z,27.15
2018-08-13T10:11:06.997Z,27.20
2018-08-13T10:13:35.638Z,27.27
2018-08-13T10:16:04.296Z,27.32
2018-08-13T10:18:32.945Z,27.43
2018-08-13T10:21:01.655Z,27.31
2018-08-13T10:23:30.342Z,27.37
2018-08-13T10:25:58.992Z,27.56
2018-08-13T10:28:27.603Z,27.63
2018-08-13T10:30:56.240Z,27.48
2018-08-13T10:33:24.884Z,27.54
2018-08-13T10:35:53.528Z,27.73
2018-08-13T10:38:22.291Z,27.95
2018-08-13T10:40:51.199Z,28.22
2018-08-13T10:43:19.860Z,28.46
2018-08-13T10:45:48.578Z,28.60
2018-08-13T10:48:17.200Z,28.80
2018-08-13T10:50:45.858Z,29.17
2018-08-13T10:53:14.549Z,29.75
2018-08-13T10:55:43.245Z,30.37
2018-08-13T10:58:11.919Z,30.99
2018-08-13T11:00:40.557Z,31.38
2018-08-13T11:03:09.286Z,31.66
2018-08-13T11:05:37.975Z,31.74
2018-08-13T11:08:06.620Z,31.88
2018-08-13T11:10:35.251Z,32.17
2018-08-13T11:13:03.929Z,32.39
2018-08-13T11:15:32.578Z,32.58
2018-08-13T11:18:01.290Z,32.34
2018-08-13T11:20:29.937Z,32.92
2018-08-13T11:22:58.599Z,33.24
2018-08-13T11:25:27.245Z,33.17
2018-08-13T11:27:55.934Z,32.98
2018-08-13T11:30:24.595Z,33.62
2018-08-13T11:32:53.272Z,33.90
2018-08-13T11:35:21.935Z,33.97
2018-08-13T11:37:50.614Z,33.91
2018-08-13T11:40:19.347Z,33.44
2018-08-13T11:42:48.091Z,33.81
2018-08-13T11:45:16.743Z,33.67
2018-08-13T11:47:45.441Z,33.63
2018-08-13T11:50:16.409Z,33.53
2018-08-13T11:52:46.862Z,33.97
2018-08-13T11:55:16.150Z,34.43
2018-08-13T11:57:44.975Z,34.67
2018-08-13T12:00:14.014Z,34.50
2018-08-13T12:02:42.887Z,35.01
2018-08-13T12:05:13.139Z,34.63
2018-08-13T12:07:42.383Z,34.62
2018-08-13T12:10:12.060Z,35.26
2018-08-13T12:12:41.645Z,35.21
2018-08-13T12:15:11.486Z,35.41
2018-08-13T12:17:40.484Z,35.47
2018-08-13T12:20:15.096Z,35.02
2018-08-13T12:22:44.313Z,35.03
2018-08-13T12:25:17.238Z,35.03
2018-08-13T12:27:46.012Z,34.98
2018-08-13T12:30:14.639Z,34.92
2018-08-13T12:32:43.280Z,34.88
2018-08-13T12:35:11.972Z,33.94
2018-08-13T12:37:40.639Z,34.05
2018-08-13T12:40:10.515Z,34.28
2018-08-13T12:42:39.880Z,34.61
2018-08-13T12:45:12.987Z,35.08
2018-08-13T12:47:41.997Z,35.08
2018-08-13T12:50:16.405Z,34.84
2018-08-13T12:52:46.115Z,34.95
2018-08-13T12:55:15.135Z,35.06
2018-08-13T12:57:44.036Z,35.34
2018-08-13T13:00:14.115Z,35.81
2018-08-13T13:02:43.240Z,35.90
2018-08-13T13:05:13.358Z,36.07
2018-08-13T13:07:42.024Z,35.72
2018-08-13T13:10:12.962Z,36.29
2018-08-13T13:12:42.088Z,36.38
2018-08-13T13:15:13.980Z,36.18
2018-08-13T13:17:42.746Z,36.07
2018-08-13T13:20:17.590Z,36.25
2018-08-13T13:22:46.575Z,36.61
2018-08-13T13:25:15.609Z,36.31
2018-08-13T13:27:44.252Z,36.26
2018-08-13T13:30:14.613Z,36.04
2018-08-13T13:32:43.615Z,36.33
2018-08-13T13:35:14.123Z,36.55
2018-08-13T13:37:43.377Z,36.35
2018-08-13T13:40:15.006Z,36.41
2018-08-13T13:42:44.178Z,36.27
2018-08-13T13:45:13.446Z,36.48
2018-08-13T13:47:42.154Z,36.33
2018-08-13T13:50:13.027Z,36.35
2018-08-13T13:52:41.886Z,36.70
2018-08-13T13:55:10.644Z,36.57
2018-08-13T13:57:39.343Z,36.71
2018-08-13T14:00:11.934Z,36.27
2018-08-13T14:02:40.599Z,36.02
2018-08-13T14:05:09.266Z,36.29
2018-08-13T14:07:37.956Z,36.18
2018-08-13T14:10:07.798Z,36.39
2018-08-13T14:12:36.487Z,36.96
2018-08-13T14:15:06.444Z,36.79
2018-08-13T14:17:35.023Z,36.32
2018-08-13T14:20:03.740Z,36.90
2018-08-13T14:22:32.341Z,37.13
2018-08-13T14:25:01.071Z,36.31
2018-08-13T14:27:29.719Z,36.37
2018-08-13T14:29:58.380Z,36.67
2018-08-13T14:32:27.026Z,36.54
2018-08-13T14:34:55.693Z,36.52
2018-08-13T14:37:24.388Z,36.71
2018-08-13T14:39:53.086Z,36.70
2018-08-13T14:42:21.867Z,36.52
2018-08-13T14:44:50.462Z,36.79
2018-08-13T14:47:19.092Z,36.55
2018-08-13T14:49:47.737Z,36.75
2018-08-13T14:52:16.368Z,37.01
2018-08-13T14:54:44.974Z,37.21
2018-08-13T14:57:13.683Z,36.95
2018-08-13T14:59:42.512Z,36.72
2018-08-13T15:02:11.215Z,37.05
2018-08-13T15:04:39.855Z,36.89
2018-08-13T15:07:08.634Z,36.78
2018-08-13T15:09:37.282Z,36.49
2018-08-13T15:12:06.044Z,36.26
2018-08-13T15:14:34.750Z,35.93
2018-08-13T15:17:03.427Z,36.22
2018-08-13T15:19:32.090Z,36.48
2018-08-13T15:22:00.746Z,36.37
2018-08-13T15:24:29.463Z,36.48
2018-08-13T15:26:58.120Z,36.24
2018-08-13T15:29:26.768Z,36.31
2018-08-13T15:31:55.418Z,36.38
2018-08-13T15:34:24.084Z,35.87
2018-08-13T15:36:52.786Z,36.31
2018-08-13T15:39:21.448Z,36.03
2018-08-13T15:41:50.116Z,36.39
2018-08-13T15:44:18.734Z,36.26
2018-08-13T15:46:47.399Z,36.05
2018-08-13T15:49:16.087Z,36.15
2018-08-13T15:51:44.725Z,35.75
2018-08-13T15:54:13.353Z,35.97
2018-08-13T15:56:41.955Z,35.62
2018-08-13T15:59:10.695Z,35.73
2018-08-13T16:01:39.525Z,35.60
2018-08-13T16:04:08.477Z,35.34
2018-08-13T16:06:37.189Z,35.43
2018-08-13T16:09:06.978Z,35.62
2018-08-13T16:11:35.703Z,35.55
2018-08-13T16:14:04.679Z,35.40
2018-08-13T16:16:33.300Z,35.16
2018-08-13T16:19:02.020Z,34.87
2018-08-13T16:21:30.711Z,34.91
2018-08-13T16:23:59.431Z,34.52
2018-08-13T16:26:28.057Z,34.29
2018-08-13T16:28:56.675Z,34.62
2018-08-13T16:31:25.380Z,34.51
2018-08-13T16:33:54.046Z,34.10
2018-08-13T16:36:22.687Z,33.81
2018-08-13T16:38:51.343Z,33.57
2018-08-13T16:41:20.007Z,33.27
2018-08-13T16:43:48.647Z,33.23
2018-08-13T16:46:17.318Z,32.92
2018-08-13T16:48:46.015Z,32.74
2018-08-13T16:51:14.943Z,32.74
2018-08-13T16:53:44.669Z,32.72
2018-08-13T16:56:13.725Z,32.57
2018-08-13T16:58:51.287Z,32.24
2018-08-13T17:01:20.030Z,31.80
2018-08-13T17:03:48.675Z,31.44
2018-08-13T17:06:17.650Z,31.42
2018-08-13T17:08:46.328Z,31.18
2018-08-13T17:11:15.006Z,30.81
2018-08-13T17:13:44.158Z,30.50
2018-08-13T17:16:12.796Z,30.14
2018-08-13T17:18:41.493Z,29.88
2018-08-13T17:21:10.348Z,29.71
2018-08-13T17:23:39.018Z,29.26
2018-08-13T17:26:07.765Z,28.94
2018-08-13T17:28:36.466Z,28.60
2018-08-13T17:31:05.209Z,28.53
2018-08-13T17:33:33.875Z,28.31
2018-08-13T17:36:02.649Z,28.17
2018-08-13T17:38:31.290Z,27.85
2018-08-13T17:41:00.074Z,27.59
2018-08-13T17:43:28.798Z,27.46
2018-08-13T17:45:57.519Z,27.26
2018-08-13T17:48:26.091Z,27.20
2018-08-13T17:50:54.699Z,27.12
2018-08-13T17:53:23.434Z,26.98
2018-08-13T17:55:52.784Z,26.91
2018-08-13T17:58:21.711Z,26.74
2018-08-13T18:00:50.383Z,26.50
2018-08-13T18:03:19.266Z,26.36
2018-08-13T18:05:48.014Z,26.24
2018-08-13T18:08:16.686Z,26.10
2018-08-13T18:10:45.373Z,26.22
2018-08-13T18:13:14.123Z,26.09
2018-08-13T18:18:14.499Z,25.83
2018-08-13T18:20:43.172Z,25.70
2018-08-13T18:23:11.826Z,25.60
2018-08-13T18:25:40.530Z,25.55
2018-08-13T18:28:09.310Z,25.36
2018-08-13T18:30:37.935Z,25.40
2018-08-13T18:33:07.071Z,25.30
2018-08-13T18:35:35.739Z,25.25
2018-08-13T18:38:05.133Z,25.12
2018-08-13T18:40:34.758Z,25.16
2018-08-13T18:43:03.496Z,25.11
2018-08-13T18:45:32.188Z,24.96
2018-08-13T18:48:01.098Z,24.92
2018-08-13T18:50:29.789Z,24.89
2018-08-13T18:52:58.539Z,24.76
2018-08-13T18:55:27.924Z,24.63
2018-08-13T18:57:57.690Z,24.56
2018-08-13T19:00:29.242Z,24.43
2018-08-13T19:02:59.301Z,24.38
2018-08-13T19:05:29.236Z,24.34
2018-08-13T19:07:58.003Z,24.32
2018-08-13T19:10:26.679Z,24.28
2018-08-13T19:12:55.301Z,24.25
2018-08-13T19:15:26.462Z,24.15
2018-08-13T19:17:55.288Z,23.96
2018-08-13T19:20:24.582Z,23.98
2018-08-13T19:22:53.379Z,23.94
2018-08-13T19:25:23.749Z,23.86
2018-08-13T19:27:52.586Z,23.80
2018-08-13T19:30:22.299Z,23.70
2018-08-13T19:32:51.619Z,23.67
2018-08-13T19:35:20.328Z,23.64
2018-08-13T19:37:56.977Z,23.58
2018-08-13T19:40:26.557Z,23.50
2018-08-13T19:42:55.321Z,23.45
2018-08-13T19:45:25.135Z,23.43
2018-08-13T19:47:54.279Z,23.38
2018-08-13T19:50:22.997Z,23.34
2018-08-13T19:52:57.278Z,23.23
2018-08-13T19:58:34.374Z,23.20
2018-08-13T20:01:03.081Z,23.17
2018-08-13T20:03:31.767Z,23.11
2018-08-13T20:06:00.470Z,23.09
2018-08-13T20:08:29.175Z,23.08
2018-08-13T20:10:57.875Z,23.07
2018-08-13T20:13:26.700Z,23.06
2018-08-13T20:15:55.400Z,23.04
2018-08-13T20:18:24.067Z,22.99
2018-08-13T20:20:53.082Z,22.91
2018-08-13T20:23:21.802Z,22.86
2018-08-13T20:25:50.565Z,22.86
2018-08-13T20:28:19.332Z,22.79
2018-08-13T20:30:48.035Z,22.73
2018-08-13T20:33:16.742Z,22.62
2018-08-13T20:35:45.492Z,22.59
2018-08-13T20:38:14.190Z,22.57
2018-08-13T20:40:43.244Z,22.61
2018-08-13T20:43:11.926Z,22.52
2018-08-13T20:45:40.655Z,22.33
2018-08-13T20:48:09.369Z,22.30
2018-08-13T20:50:38.203Z,22.28
2018-08-13T20:53:07.021Z,22.21
2018-08-13T20:55:36.525Z,22.14
2018-08-13T20:58:05.206Z,22.05
2018-08-13T21:00:37.226Z,22.02
2018-08-13T21:03:05.975Z,22.01
2018-08-13T21:05:34.715Z,22.04
2018-08-13T21:08:03.471Z,21.99
2018-08-13T21:10:32.186Z,21.95
2018-08-13T21:13:00.867Z,21.86
2018-08-13T21:15:29.586Z,21.87
2018-08-13T21:18:04.430Z,21.84
2018-08-13T21:20:33.140Z,21.83
2018-08-13T21:23:01.986Z,21.77
2018-08-13T21:25:30.752Z,21.68
2018-08-13T21:27:59.437Z,21.63
2018-08-13T21:30:28.195Z,21.62
2018-08-13T21:32:56.887Z,21.61
2018-08-13T21:35:26.250Z,21.54
2018-08-13T21:37:54.994Z,21.50
2018-08-13T21:40:23.753Z,21.42
2018-08-13T21:42:53.610Z,21.30
2018-08-13T21:45:22.376Z,21.34
2018-08-13T21:47:51.083Z,21.34
2018-08-13T21:50:23.312Z,21.32
2018-08-13T21:52:52.779Z,21.34
2018-08-13T21:55:21.525Z,21.37
2018-08-13T21:57:50.507Z,21.32
2018-08-13T22:00:29.742Z,21.31
2018-08-13T22:03:01.045Z,21.26
2018-08-13T22:05:29.765Z,21.26
2018-08-13T22:08:00.076Z,21.26
2018-08-13T22:10:29.165Z,21.27
2018-08-13T22:12:57.969Z,21.22
2018-08-13T22:15:28.853Z,21.25
2018-08-13T22:17:59.331Z,21.21
2018-08-13T22:20:28.811Z,21.23
2018-08-13T22:22:58.899Z,21.15
2018-08-13T22:25:45.973Z,21.14
2018-08-13T22:28:16.405Z,21.09
2018-08-13T22:30:45.353Z,21.02
2018-08-13T22:33:14.155Z,20.93
2018-08-13T22:35:42.846Z,20.92
2018-08-13T22:38:11.650Z,20.88
2018-08-13T22:40:40.972Z,20.85
2018-08-13T22:43:10.316Z,20.86
2018-08-13T22:45:39.010Z,20.84
2018-08-13T22:48:07.700Z,20.78
2018-08-13T22:50:36.429Z,20.79
2018-08-13T22:53:05.185Z,20.78
2018-08-13T22:55:33.924Z,20.81
2018-08-13T22:58:02.729Z,20.85
2018-08-13T23:00:31.408Z,20.87
2018-08-13T23:03:00.155Z,20.85
2018-08-13T23:05:29.424Z,20.87
2018-08-13T23:07:58.081Z,20.84
2018-08-13T23:10:26.753Z,20.73
2018-08-13T23:12:56.776Z,20.64
2018-08-13T23:15:25.679Z,20.47
2018-08-13T23:17:54.747Z,20.36
2018-08-13T23:20:25.687Z,20.39
2018-08-13T23:22:58.393Z,20.45
2018-08-13T23:25:27.665Z,20.47
2018-08-13T23:27:57.480Z,20.43
2018-08-13T23:30:26.298Z,20.47
2018-08-13T23:32:55.780Z,20.41
2018-08-13T23:35:25.175Z,20.46
2018-08-13T23:37:54.072Z,20.47
2018-08-13T23:40:23.169Z,20.48
2018-08-13T23:42:51.893Z,20.42
2018-08-13T23:45:21.680Z,20.40
2018-08-13T23:47:50.370Z,20.30
2018-08-13T23:50:20.914Z,20.37
2018-08-13T23:52:51.048Z,20.39
2018-08-13T23:55:26.800Z,20.31
2018-08-13T23:57:56.114Z,20.20
